Time;durP1;ratioP1;P1;durP2;ratioP2;P2;SDS_P1;SDS_P2;PMS_P1;PMS_P2;Temp;Humidity;BMP_temperature;BMP_pressure;BME280_temperature;BME280_humidity;BME280_pressure;Samples;Min_cycle;Max_cycle;Signal;HPM_P1;HPM_P2
2023/11/12 00:04:49;;;;;;;9.30;3.15;;;;;;;7.93;69.84;99532.03;10328469;28;20049;-59
2023/11/12 00:09:51;;;;;;;8.65;2.42;;;;;;;7.98;69.48;99541.34;10325220;28;20034;-59
2023/11/12 00:14:52;;;;;;;5.18;2.35;;;;;;;7.93;69.80;99539.22;10326637;28;20485;-59
2023/11/12 00:19:54;;;;;;;4.13;2.58;;;;;;;7.92;70.26;99542.94;10324299;28;20046;-59
2023/11/12 00:24:55;;;;;;;7.25;2.95;;;;;;;7.91;69.59;99533.22;10324335;28;20049;-59
2023/11/12 00:29:57;;;;;;;7.80;4.93;;;;;;;7.81;70.12;99525.44;10324453;28;20034;-59
2023/11/12 00:34:58;;;;;;;6.78;3.53;;;;;;;7.78;70.44;99516.91;10309085;28;20052;-59
2023/11/12 00:40:00;;;;;;;7.03;3.35;;;;;;;7.65;70.68;99521.03;10326090;28;20039;-59
2023/11/12 00:45:02;;;;;;;8.23;3.80;;;;;;;7.65;70.47;99515.69;10327128;28;20043;-59
2023/11/12 00:50:03;;;;;;;7.82;3.67;;;;;;;7.64;70.51;99513.19;10321381;28;20042;-59
2023/11/12 00:55:05;;;;;;;9.95;4.63;;;;;;;7.57;70.54;99523.75;10327366;28;20040;-59
2023/11/12 01:00:07;;;;;;;9.15;4.13;;;;;;;7.54;70.15;99524.09;10325156;28;20057;-59
2023/11/12 01:05:09;;;;;;;9.45;3.90;;;;;;;7.52;70.22;99516.28;10319696;28;20134;-59
2023/11/12 01:10:10;;;;;;;10.85;4.22;;;;;;;7.34;70.65;99518.38;10324596;28;20050;-60
2023/11/12 01:15:17;;;;;;;6.15;4.18;;;;;;;7.41;70.73;99519.34;10332413;28;20490;-60
2023/11/12 01:20:19;;;;;;;10.05;4.65;;;;;;;7.44;70.62;99513.63;10336793;28;20077;-60
2023/11/12 01:25:20;;;;;;;7.95;4.00;;;;;;;7.48;71.11;99514.13;10337928;28;20042;-60
2023/11/12 01:30:22;;;;;;;9.98;4.63;;;;;;;7.56;71.24;99511.38;10334077;28;20045;-60
2023/11/12 01:35:24;;;;;;;10.88;5.53;;;;;;;7.55;70.62;99489.16;10330623;28;20054;-60
2023/11/12 01:40:25;;;;;;;13.65;6.18;;;;;;;7.58;71.13;99497.84;10341915;28;20050;-60
2023/11/12 01:45:27;;;;;;;7.22;4.63;;;;;;;7.51;71.13;99490.53;10335389;28;20050;-60
2023/11/12 01:50:29;;;;;;;9.75;5.05;;;;;;;7.51;71.03;99492.38;10329813;28;20078;-60
2023/11/12 01:55:32;;;;;;;13.25;5.78;;;;;;;7.50;71.21;99485.34;10332260;28;20042;-60
2023/11/12 02:00:34;;;;;;;12.15;5.32;;;;;;;7.39;70.98;99481.25;10336552;28;20524;-60
2023/11/12 02:05:36;;;;;;;10.90;5.30;;;;;;;7.28;71.36;99484.34;10331409;28;20042;-60
2023/11/12 02:10:37;;;;;;;12.02;6.43;;;;;;;7.19;71.81;99480.88;10327769;28;20512;-60
2023/11/12 02:15:39;;;;;;;10.38;5.88;;;;;;;7.23;71.18;99502.75;10327877;28;20045;-60
2023/11/12 02:20:44;;;;;;;11.77;6.65;;;;;;;7.23;71.87;99500.91;10323251;28;20062;-60
2023/11/12 02:25:46;;;;;;;13.93;7.00;;;;;;;7.19;72.42;99496.06;10334125;28;20069;-60
2023/11/12 02:30:52;;;;;;;14.73;7.13;;;;;;;7.26;72.44;99494.38;10333150;28;20046;-60
2023/11/12 02:35:55;;;;;;;12.00;6.68;;;;;;;7.29;72.04;99499.38;10306998;28;20082;-60
2023/11/12 02:40:57;;;;;;;12.23;7.05;;;;;;;7.32;72.22;99494.47;10308190;28;20504;-60
2023/11/12 02:45:58;;;;;;;16.50;7.85;;;;;;;7.30;72.03;99501.84;10302471;28;20042;-60
2023/11/12 02:50:59;;;;;;;16.60;8.32;;;;;;;7.32;72.03;99494.47;10316612;28;20042;-61
2023/11/12 02:56:01;;;;;;;11.43;7.07;;;;;;;7.39;72.58;99488.47;10307252;28;20042;-60
2023/11/12 03:01:02;;;;;;;13.05;8.30;;;;;;;7.27;72.83;99485.34;10330709;28;20108;-60
2023/11/12 03:06:04;;;;;;;13.70;7.32;;;;;;;7.30;71.96;99482.31;10329253;28;20042;-60
2023/11/12 03:11:06;;;;;;;15.30;9.20;;;;;;;7.24;72.26;99478.50;10332684;28;20047;-60
2023/11/12 03:16:07;;;;;;;14.20;7.93;;;;;;;7.31;72.32;99474.13;10325531;28;20050;-60
2023/11/12 03:21:09;;;;;;;16.65;8.40;;;;;;;7.43;71.59;99457.69;10331150;28;20044;-61
2023/11/12 03:26:11;;;;;;;12.85;6.72;;;;;;;7.55;71.62;99450.91;10340209;28;20050;-60
2023/11/12 03:31:13;;;;;;;11.05;6.90;;;;;;;7.61;71.28;99447.50;10331333;28;20059;-60
2023/11/12 03:36:15;;;;;;;13.43;7.30;;;;;;;7.63;71.74;99442.00;10323962;28;20047;-60
2023/11/12 03:41:17;;;;;;;12.95;5.88;;;;;;;7.68;71.87;99419.03;10320782;28;20052;-59
2023/11/12 03:46:19;;;;;;;13.85;6.32;;;;;;;7.73;70.89;99422.00;10323557;28;20182;-59
2023/11/12 03:51:20;;;;;;;14.98;6.40;;;;;;;7.71;71.31;99417.84;10324607;28;20050;-60
2023/11/12 03:56:22;;;;;;;10.23;6.25;;;;;;;7.73;71.39;99422.00;10319603;28;20062;-60
2023/11/12 04:01:24;;;;;;;10.50;5.78;;;;;;;7.72;70.69;99425.69;10325398;28;20057;-59
2023/11/12 04:06:26;;;;;;;12.43;5.65;;;;;;;7.68;71.13;99410.16;10303597;28;20053;-60
2023/11/12 04:11:27;;;;;;;13.50;6.35;;;;;;;7.66;71.26;99415.72;10326897;28;20441;-59
2023/11/12 04:16:29;;;;;;;13.98;6.70;;;;;;;7.73;70.50;99413.97;10302795;28;20054;-60
2023/11/12 04:21:31;;;;;;;14.15;6.90;;;;;;;7.75;70.62;99409.25;10327292;28;20043;-60
2023/11/12 04:26:32;;;;;;;13.85;7.53;;;;;;;7.82;70.91;99413.88;10321052;28;20053;-60
2023/11/12 04:31:35;;;;;;;15.70;6.68;;;;;;;7.84;70.77;99415.38;10321417;28;20050;-59
2023/11/12 04:36:37;;;;;;;10.65;6.00;;;;;;;7.85;70.89;99421.56;10320543;28;20146;-59
2023/11/12 04:41:38;;;;;;;13.05;6.95;;;;;;;7.89;70.92;99420.19;10323949;28;20058;-59
2023/11/12 04:46:40;;;;;;;11.38;5.95;;;;;;;7.85;71.38;99418.88;10307855;28;20050;-60
2023/11/12 04:51:41;;;;;;;9.52;5.18;;;;;;;7.98;70.76;99415.56;10323672;28;20511;-60
2023/11/12 04:56:46;;;;;;;8.07;4.68;;;;;;;7.97;71.25;99412.06;10315654;28;20053;-59
2023/11/12 05:01:49;;;;;;;9.15;5.13;;;;;;;7.93;71.66;99411.59;10320235;28;20092;-59
2023/11/12 05:06:50;;;;;;;14.45;4.85;;;;;;;7.95;71.25;99408.75;10317941;28;20078;-59
2023/11/12 05:11:52;;;;;;;11.20;5.85;;;;;;;8.09;71.10;99407.09;10319988;28;20058;-59
2023/11/12 05:16:53;;;;;;;11.45;5.22;;;;;;;8.12;70.95;99409.44;10321574;28;20042;-59
2023/11/12 05:21:54;;;;;;;11.75;4.80;;;;;;;8.10;70.73;99406.09;10319591;28;20053;-59
2023/11/12 05:26:56;;;;;;;8.98;5.28;;;;;;;8.15;70.86;99411.72;10326818;28;20050;-59
2023/11/12 05:31:57;;;;;;;8.15;4.70;;;;;;;8.05;70.79;99411.16;10323051;28;20042;-60
2023/11/12 05:36:59;;;;;;;8.65;2.95;;;;;;;8.05;70.83;99414.66;10322486;28;20054;-59
2023/11/12 05:42:01;;;;;;;6.05;3.17;;;;;;;7.92;71.15;99406.47;10319345;28;20116;-60
2023/11/12 05:47:03;;;;;;;5.18;3.20;;;;;;;7.89;70.87;99404.13;10317565;28;20046;-59
2023/11/12 05:52:04;;;;;;;6.63;2.85;;;;;;;7.87;71.05;99416.88;10321915;28;20046;-60
2023/11/12 05:57:06;;;;;;;7.47;4.22;;;;;;;8.01;70.38;99434.78;10324418;28;20046;-60
2023/11/12 06:02:08;;;;;;;8.95;4.10;;;;;;;8.10;69.85;99439.06;10320617;28;20049;-59
2023/11/12 06:07:09;;;;;;;10.75;4.35;;;;;;;8.17;69.93;99432.97;10322135;28;20057;-59
2023/11/12 06:12:11;;;;;;;10.43;5.25;;;;;;;8.22;69.49;99436.75;10323813;28;20051;-59
2023/11/12 06:17:13;;;;;;;8.93;4.63;;;;;;;8.28;69.96;99435.19;10321310;28;20465;-59
2023/11/12 06:22:15;;;;;;;13.45;5.43;;;;;;;8.33;69.55;99436.31;10317552;28;20050;-59
2023/11/12 06:27:16;;;;;;;9.50;5.43;;;;;;;8.43;69.40;99446.78;10315971;28;20042;-60
2023/11/12 06:32:18;;;;;;;7.88;4.40;;;;;;;8.45;69.17;99454.59;10325670;28;20046;-61
2023/11/12 06:37:20;;;;;;;10.02;4.60;;;;;;;8.51;69.25;99456.53;10332756;28;20046;-62
2023/11/12 06:42:23;;;;;;;8.68;3.70;;;;;;;8.43;69.56;99453.97;10334904;28;20047;-63
2023/11/12 06:47:25;;;;;;;9.60;3.78;;;;;;;8.36;69.84;99464.56;10329260;28;20120;-63
2023/11/12 06:52:26;;;;;;;10.32;4.55;;;;;;;8.33;69.78;99468.44;10336158;28;20501;-62
2023/11/12 06:57:27;;;;;;;12.15;5.85;;;;;;;8.35;69.91;99470.91;10341802;28;20046;-59
2023/11/12 07:02:29;;;;;;;9.13;5.40;;;;;;;8.37;69.43;99479.59;10346452;28;20070;-63
2023/11/12 07:07:33;;;;;;;12.20;5.53;;;;;;;8.46;69.53;99483.06;10348662;28;20046;-64
2023/11/12 07:12:35;;;;;;;10.60;4.80;;;;;;;8.34;69.98;99490.69;10347035;28;20046;-63
2023/11/12 07:17:36;;;;;;;9.00;4.90;;;;;;;8.44;69.27;99506.53;10354377;28;20077;-63
2023/11/12 07:22:38;;;;;;;10.90;5.07;;;;;;;8.52;69.14;99522.50;10352635;28;20053;-63
2023/11/12 07:27:40;;;;;;;8.00;3.88;;;;;;;8.50;69.26;99525.34;10335010;28;20121;-63
2023/11/12 07:32:42;;;;;;;7.68;4.00;;;;;;;8.28;69.96;99531.59;10356360;28;20574;-63
2023/11/12 07:37:43;;;;;;;8.43;4.95;;;;;;;8.27;70.06;99532.59;10354834;28;20107;-63
2023/11/12 07:42:45;;;;;;;12.85;5.75;;;;;;;8.26;69.66;99525.59;10358135;28;20050;-63
2023/11/12 07:47:47;;;;;;;9.45;4.65;;;;;;;8.26;69.74;99533.63;10347521;28;20051;-62
2023/11/12 07:52:49;;;;;;;11.20;5.53;;;;;;;8.24;70.09;99536.47;10345040;28;20050;-62
2023/11/12 07:57:51;;;;;;;12.30;5.40;;;;;;;8.35;69.67;99548.56;10350996;28;20474;-62
2023/11/12 08:02:52;;;;;;;9.63;4.72;;;;;;;8.20;69.81;99547.72;10347094;28;20049;-62
2023/11/12 08:07:54;;;;;;;12.00;5.05;;;;;;;8.30;69.81;99553.66;10350332;28;20054;-61
2023/11/12 08:12:55;;;;;;;11.20;5.32;;;;;;;8.33;69.83;99555.94;10355077;28;20046;-63
2023/11/12 08:17:57;;;;;;;12.88;5.63;;;;;;;8.38;69.47;99558.09;10353755;28;20527;-62
2023/11/12 08:22:58;;;;;;;10.65;5.97;;;;;;;8.50;69.18;99552.16;10345089;28;20058;-61
2023/11/12 08:28:00;;;;;;;10.88;5.72;;;;;;;8.51;69.31;99561.00;10354055;28;20050;-61
2023/11/12 08:33:01;;;;;;;11.15;5.30;;;;;;;8.67;69.33;99560.03;10350985;28;20479;-61
2023/11/12 08:38:03;;;;;;;8.65;5.05;;;;;;;8.77;68.90;99565.09;10351843;28;20045;-62
2023/11/12 08:43:05;;;;;;;11.40;6.70;;;;;;;8.95;68.57;99564.78;10353163;28;20298;-61
2023/11/12 08:48:06;;;;;;;12.50;5.20;;;;;;;9.11;68.56;99568.06;10348948;28;20133;-62
2023/11/12 08:53:08;;;;;;;10.43;5.15;;;;;;;9.10;68.64;99566.44;10346702;28;20497;-62
2023/11/12 08:58:09;;;;;;;10.18;5.05;;;;;;;9.19;68.15;99574.38;10352658;28;20089;-62
2023/11/12 09:03:10;;;;;;;7.93;4.65;;;;;;;9.09;68.52;99571.97;10351889;28;20129;-62
2023/11/12 09:08:12;;;;;;;10.90;4.90;;;;;;;9.14;68.51;99569.53;10348478;28;20054;-62
2023/11/12 09:13:14;;;;;;;8.23;4.00;;;;;;;9.13;68.29;99567.91;10345817;28;20062;-62
2023/11/12 09:18:15;;;;;;;9.73;4.45;;;;;;;9.35;67.97;99573.34;10347773;28;20137;-62
2023/11/12 09:23:17;;;;;;;13.48;5.03;;;;;;;9.45;67.67;99580.06;10340552;28;20416;-64
2023/11/12 09:28:18;;;;;;;7.40;4.18;;;;;;;9.47;67.68;99586.06;10334069;28;20046;-65
2023/11/12 09:33:20;;;;;;;8.77;4.65;;;;;;;9.58;67.36;99582.06;10308091;28;20069;-65
2023/11/12 09:38:21;;;;;;;7.72;4.72;;;;;;;9.76;67.07;99584.34;10325763;28;20042;-64
2023/11/12 09:43:25;;;;;;;9.13;4.97;;;;;;;9.80;66.80;99584.78;10329047;28;20045;-65
2023/11/12 09:48:35;;;;;;;8.80;4.63;;;;;;;9.81;66.95;99587.28;10329615;28;20053;-64
2023/11/12 09:53:39;;;;;;;8.48;4.07;;;;;;;10.03;66.21;99584.59;10328907;28;20046;-64
2023/11/12 09:58:46;;;;;;;9.90;4.60;;;;;;;9.93;66.57;99580.41;10322848;28;20042;-64
2023/11/12 10:03:48;;;;;;;9.35;5.38;;;;;;;10.07;66.33;99573.31;10327393;28;20108;-64
2023/11/12 10:08:51;;;;;;;10.30;4.55;;;;;;;10.13;66.31;99563.66;10327426;28;20157;-64
2023/11/12 10:13:52;;;;;;;10.63;5.22;;;;;;;10.31;65.76;99557.84;10295511;28;20066;-63
2023/11/12 10:19:08;;;;;;;10.55;5.20;;;;;;;10.36;65.67;99551.88;10324477;28;20049;-64
2023/11/12 10:24:10;;;;;;;9.45;4.95;;;;;;;10.32;66.05;99551.44;10332128;28;20046;-65
2023/11/12 10:29:21;;;;;;;11.90;5.70;;;;;;;10.66;65.21;99545.31;10330075;28;20129;-65
2023/11/12 10:34:26;;;;;;;13.38;5.13;;;;;;;11.34;64.12;99538.41;10334488;28;20053;-65
2023/11/12 10:39:41;;;;;;;11.50;5.57;;;;;;;11.67;64.09;99542.03;10331909;28;20134;-65
2023/11/12 10:44:44;;;;;;;10.18;5.22;;;;;;;11.39;64.86;99541.31;10328658;28;20037;-64
2023/11/12 10:49:47;;;;;;;10.27;5.38;;;;;;;11.17;65.11;99549.50;10333204;28;20567;-64
2023/11/12 10:54:51;;;;;;;11.75;5.13;;;;;;;11.19;64.37;99550.13;10335196;28;20096;-64
2023/11/12 10:59:54;;;;;;;10.38;4.93;;;;;;;11.11;64.40;99550.31;10336665;28;20118;-64
2023/11/12 11:04:56;;;;;;;17.58;6.07;;;;;;;10.99;64.53;99543.84;10332516;28;20359;-64
2023/11/12 11:09:57;;;;;;;15.52;6.00;;;;;;;11.08;64.13;99537.28;10331285;28;20060;-65
2023/11/12 11:15:37;;;;;;;12.45;5.78;;;;;;;11.20;63.95;99534.84;10340175;28;20129;-65
2023/11/12 11:21:08;;;;;;;11.10;5.72;;;;;;;11.30;64.00;99528.03;10334967;28;20100;-65
2023/11/12 11:26:29;;;;;;;12.43;5.47;;;;;;;11.51;63.81;99512.78;10312874;28;20073;-65
2023/11/12 11:31:35;;;;;;;10.18;5.82;;;;;;;11.79;63.61;99519.88;10303670;28;20052;-65
2023/11/12 11:36:42;;;;;;;10.95;5.40;;;;;;;11.98;63.11;99518.31;10334792;28;20299;-65
2023/11/12 11:41:50;;;;;;;11.68;5.47;;;;;;;12.00;63.42;99527.00;10344795;28;20081;-64
2023/11/12 11:47:12;;;;;;;;;;;;;;;11.80;64.04;99518.88;10363267;28;20042;-65
2023/11/12 11:52:22;;;;;;;17.23;5.25;;;;;;;11.63;63.95;99515.72;10340618;28;20491;-64
2023/11/12 11:57:25;;;;;;;10.38;6.00;;;;;;;11.84;63.08;99520.94;10353785;28;20054;-65
2023/11/12 12:02:27;;;;;;;9.40;5.07;;;;;;;11.96;62.84;99517.69;10362050;28;20118;-65
2023/11/12 12:07:32;;;;;;;7.93;5.30;;;;;;;12.01;62.70;99515.22;10345311;28;20096;-65
2023/11/12 12:12:36;;;;;;;14.07;5.25;;;;;;;12.29;62.36;99513.13;10320220;28;20697;-66
2023/11/12 12:17:38;;;;;;;10.43;5.22;;;;;;;12.44;62.31;99514.78;10333709;28;20116;-66
2023/11/12 12:22:40;;;;;;;11.68;5.80;;;;;;;12.52;62.30;99511.03;10304720;28;20065;-65
2023/11/12 12:27:52;;;;;;;12.52;6.05;;;;;;;12.49;62.13;99517.69;10327275;28;20037;-65
2023/11/12 12:32:54;;;;;;;13.82;6.30;;;;;;;12.03;62.57;99522.03;10340547;28;20070;-65
2023/11/12 12:38:06;;;;;;;15.52;6.72;;;;;;;11.98;62.61;99521.00;10336663;28;20051;-65
2023/11/12 12:43:10;;;;;;;10.85;5.45;;;;;;;12.09;62.32;99521.22;10310150;28;20049;-66
2023/11/12 12:48:12;;;;;;;10.25;5.68;;;;;;;12.45;61.30;99521.84;10323174;28;20577;-65
2023/11/12 12:53:22;;;;;;;12.38;6.10;;;;;;;12.62;61.34;99519.53;10339854;28;20073;-64
2023/11/12 12:58:38;;;;;;;13.40;6.43;;;;;;;12.34;61.60;99528.66;10343022;28;20045;-64
2023/11/12 13:03:44;;;;;;;12.63;6.10;;;;;;;11.95;62.57;99519.56;10335675;28;20049;-64
2023/11/12 13:08:47;;;;;;;12.52;5.97;;;;;;;12.23;61.54;99516.66;10331957;28;20129;-64
2023/11/12 13:13:50;;;;;;;13.77;6.25;;;;;;;12.41;61.02;99521.41;10340788;28;20046;-63
2023/11/12 13:18:51;;;;;;;16.13;6.00;;;;;;;12.30;61.45;99525.56;10336400;28;20057;-63
2023/11/12 13:23:53;;;;;;;8.88;5.00;;;;;;;12.04;61.75;99522.84;10336484;28;20039;-63
2023/11/12 13:28:54;;;;;;;10.88;5.50;;;;;;;11.69;62.05;99526.50;10335982;28;20048;-63
2023/11/12 13:33:56;;;;;;;9.20;5.18;;;;;;;11.80;62.16;99519.69;10336221;28;20046;-63
2023/11/12 13:38:57;;;;;;;11.93;4.63;;;;;;;11.71;62.10;99519.06;10336490;28;20034;-63
2023/11/12 13:43:59;;;;;;;11.35;3.75;;;;;;;11.36;62.44;99515.66;10327735;28;20047;-63
2023/11/12 13:49:00;;;;;;;8.05;4.00;;;;;;;11.14;63.16;99517.66;10312424;28;20041;-63
2023/11/12 13:54:07;;;;;;;7.93;3.55;;;;;;;11.18;62.71;99507.31;10331486;28;20408;-63
2023/11/12 13:59:09;;;;;;;7.97;3.38;;;;;;;11.43;61.91;99512.97;10331263;28;20497;-63
2023/11/12 14:04:13;;;;;;;7.25;3.80;;;;;;;11.26;62.11;99517.91;10332735;28;20477;-63
2023/11/12 14:09:17;;;;;;;11.05;4.18;;;;;;;11.25;62.49;99522.44;10331301;28;20054;-63
2023/11/12 14:14:18;;;;;;;13.50;4.72;;;;;;;11.05;63.16;99521.53;10333200;28;20046;-63
2023/11/12 14:19:20;;;;;;;8.93;4.38;;;;;;;10.97;63.29;99521.69;10329432;28;20054;-63
2023/11/12 14:24:24;;;;;;;10.75;4.00;;;;;;;11.12;62.34;99514.31;10327240;28;20046;-62
2023/11/12 14:29:26;;;;;;;23.98;5.53;;;;;;;11.01;62.69;99521.09;10325203;28;20730;-63
2023/11/12 14:34:28;;;;;;;11.45;3.92;;;;;;;11.21;62.63;99521.16;10327313;28;20046;-63
2023/11/12 14:39:30;;;;;;;8.90;4.05;;;;;;;11.31;62.25;99518.97;10327616;28;20077;-63
2023/11/12 14:44:31;;;;;;;7.88;3.70;;;;;;;11.39;61.94;99515.22;10329403;28;20054;-63
2023/11/12 14:49:33;;;;;;;8.27;4.55;;;;;;;11.39;62.32;99515.22;10332724;28;20063;-62
2023/11/12 14:54:34;;;;;;;11.35;4.63;;;;;;;11.39;62.01;99528.69;10342487;28;20042;-63
2023/11/12 14:59:39;;;;;;;10.52;4.82;;;;;;;11.36;62.21;99539.03;10336889;28;20105;-63
2023/11/12 15:04:40;;;;;;;10.57;4.47;;;;;;;11.31;62.21;99536.94;10337472;28;20046;-63
2023/11/12 15:09:42;;;;;;;14.25;4.53;;;;;;;11.24;62.49;99545.00;10315589;28;20328;-64
2023/11/12 15:14:43;;;;;;;10.70;4.97;;;;;;;11.24;62.54;99549.56;10356740;28;20130;-63
2023/11/12 15:19:45;;;;;;;13.43;5.40;;;;;;;11.19;62.74;99550.13;10405070;23;20042;-81
2023/11/12 15:24:48;;;;;;;8.50;4.53;;;;;;;11.08;62.94;99556.09;10408031;28;20050;-82
2023/11/12 15:29:52;;;;;;;10.15;4.93;;;;;;;11.00;63.00;99567.00;10428975;28;20037;-84
2023/11/12 15:34:54;;;;;;;13.57;5.82;;;;;;;10.90;63.18;99565.50;10468364;28;20047;-83
2023/11/12 15:39:56;;;;;;;10.60;6.70;;;;;;;10.80;63.49;99556.97;10457304;28;20048;-83
2023/11/12 15:44:58;;;;;;;11.32;4.78;;;;;;;10.71;63.92;99561.66;10478360;28;20100;-82
2023/11/12 15:50:00;;;;;;;12.38;6.00;;;;;;;10.67;63.58;99568.44;10452890;28;20059;-83
2023/11/12 15:55:03;;;;;;;21.30;8.20;;;;;;;10.57;64.15;99569.84;10488632;28;20037;-82
2023/11/12 16:00:08;;;;;;;16.15;6.93;;;;;;;10.47;64.39;99581.75;10493913;28;20047;-83
2023/11/12 16:05:10;;;;;;;15.27;6.25;;;;;;;10.39;64.18;99578.38;10492100;28;20054;-82
2023/11/12 16:10:14;;;;;;;19.30;9.07;;;;;;;10.34;64.61;99570.06;10486956;28;20044;-83
2023/11/12 16:15:21;;;;;;;28.92;13.30;;;;;;;10.24;64.87;99571.16;10528604;28;20070;-82
2023/11/12 16:20:29;;;;;;;20.05;7.78;;;;;;;10.22;64.62;99577.78;10481228;28;20072;-83
2023/11/12 16:25:32;;;;;;;16.75;8.18;;;;;;;10.07;64.97;99584.03;10488843;28;20467;-82
2023/11/12 16:30:34;;;;;;;15.57;8.57;;;;;;;9.84;65.96;99599.50;10482192;28;20040;-83
2023/11/12 16:35:36;;;;;;;14.95;7.78;;;;;;;9.76;65.83;99605.81;10488393;28;20075;-84
2023/11/12 16:40:39;;;;;;;18.10;8.25;;;;;;;9.56;66.41;99615.47;10475777;28;20518;-83
2023/11/12 16:45:40;;;;;;;20.17;9.02;;;;;;;9.51;66.21;99621.41;10504722;28;20044;-83
2023/11/12 16:50:42;;;;;;;20.83;9.07;;;;;;;9.37;66.95;99632.97;10474983;28;20048;-83
2023/11/12 16:55:44;;;;;;;22.27;8.93;;;;;;;9.24;66.96;99645.19;10439110;23;20500;-60
2023/11/12 17:00:46;;;;;;;13.35;6.60;;;;;;;9.06;67.63;99637.53;10346189;28;20051;-60
2023/11/12 17:05:48;;;;;;;14.00;6.40;;;;;;;9.01;67.46;99629.19;10365457;28;20088;-60
2023/11/12 17:10:50;;;;;;;13.82;7.28;;;;;;;8.96;67.74;99631.56;10370109;28;20121;-61
2023/11/12 17:15:52;;;;;;;16.58;6.72;;;;;;;8.92;67.63;99633.78;10388302;28;20056;-61
2023/11/12 17:20:53;;;;;;;13.40;6.03;;;;;;;8.89;67.73;99634.16;10379242;28;20416;-60
2023/11/12 17:25:55;;;;;;;12.68;6.38;;;;;;;8.86;67.84;99634.50;10375017;28;20068;-60
2023/11/12 17:30:59;;;;;;;12.95;6.80;;;;;;;8.92;67.67;99639.13;10391946;28;20048;-61
2023/11/12 17:36:00;;;;;;;14.57;6.57;;;;;;;8.77;68.12;99640.97;10392969;28;20652;-61
2023/11/12 17:41:03;;;;;;;12.75;6.50;;;;;;;8.78;67.94;99653.34;10372288;28;20095;-61
2023/11/12 17:46:08;;;;;;;13.52;6.47;;;;;;;8.74;68.11;99660.09;10376238;28;20052;-60
2023/11/12 17:51:10;;;;;;;16.13;7.28;;;;;;;8.79;67.87;99656.84;10389074;28;20049;-60
2023/11/12 17:56:11;;;;;;;17.77;8.48;;;;;;;8.84;67.79;99649.94;10361645;28;20053;-60
2023/11/12 18:01:13;;;;;;;19.38;10.00;;;;;;;8.90;67.51;99659.94;10345546;28;20133;-61
2023/11/12 18:06:16;;;;;;;18.90;9.35;;;;;;;8.92;67.23;99660.56;10370552;28;20053;-61
2023/11/12 18:11:18;;;;;;;19.27;9.23;;;;;;;8.92;67.46;99659.75;10349045;28;20041;-61
2023/11/12 18:16:21;;;;;;;16.10;8.82;;;;;;;8.92;67.81;99667.78;10333327;28;20057;-62
2023/11/12 18:21:23;;;;;;;15.80;9.50;;;;;;;8.93;67.66;99659.56;10351771;28;20607;-61
2023/11/12 18:26:24;;;;;;;25.20;10.65;;;;;;;8.92;67.52;99657.91;10376029;28;20066;-62
2023/11/12 18:31:28;;;;;;;16.85;8.60;;;;;;;8.83;67.79;99667.06;10386367;28;20649;-62
2023/11/12 18:36:30;;;;;;;17.33;9.23;;;;;;;8.77;68.16;99677.66;10396005;28;20131;-62
2023/11/12 18:41:32;;;;;;;21.73;11.45;;;;;;;8.67;67.98;99694.00;10359994;28;20050;-61
2023/11/12 18:46:38;;;;;;;21.38;10.57;;;;;;;8.58;68.01;99690.53;10383203;28;20128;-60
2023/11/12 18:51:40;;;;;;;27.67;10.93;;;;;;;8.52;68.20;99694.75;10367086;28;20081;-60
2023/11/12 18:56:42;;;;;;;23.20;12.05;;;;;;;8.38;68.54;99703.53;10391449;28;20153;-60
2023/11/12 19:01:43;;;;;;;20.88;10.45;;;;;;;8.32;68.63;99720.31;10390776;28;20113;-60
2023/11/12 19:06:48;;;;;;;28.50;13.75;;;;;;;8.37;68.69;99723.28;10349618;28;20886;-61
2023/11/12 19:11:50;;;;;;;25.70;12.80;;;;;;;8.36;69.01;99732.34;10367531;28;20073;-60
2023/11/12 19:16:53;;;;;;;24.95;12.13;;;;;;;8.45;68.71;99709.03;10388188;28;20189;-60
2023/11/12 19:21:59;;;;;;;26.92;13.55;;;;;;;8.51;68.54;99685.06;10371643;28;20034;-60
2023/11/12 19:27:01;;;;;;;28.45;14.23;;;;;;;8.54;68.64;99702.63;10361012;28;20053;-60
2023/11/12 19:32:04;;;;;;;27.98;12.60;;;;;;;8.53;68.67;99700.94;10360259;28;20041;-60
2023/11/12 19:37:07;;;;;;;23.70;13.25;;;;;;;8.61;68.71;99714.31;10375048;28;20799;-60
2023/11/12 19:42:11;;;;;;;37.33;16.45;;;;;;;8.66;68.90;99698.50;10376433;28;20037;-60
2023/11/12 19:47:13;;;;;;;36.17;16.88;;;;;;;8.74;68.54;99724.41;10394875;28;20467;-60
2023/11/12 19:52:17;;;;;;;24.60;14.13;;;;;;;8.77;68.67;99723.19;10380695;28;20400;-62
2023/11/12 19:57:18;;;;;;;29.20;15.10;;;;;;;8.78;68.66;99740.97;10375193;28;20120;-61
2023/11/12 20:02:19;;;;;;;25.70;12.18;;;;;;;8.74;68.88;99740.47;10379336;28;20041;-61
2023/11/12 20:07:21;;;;;;;19.67;11.00;;;;;;;8.78;69.14;99740.97;10383185;28;20042;-59
2023/11/12 20:12:23;;;;;;;24.63;11.98;;;;;;;8.85;69.01;99733.88;10396023;28;20068;-60
2023/11/12 20:17:24;;;;;;;22.98;12.05;;;;;;;8.91;69.22;99731.31;10401622;28;20044;-60
2023/11/12 20:22:26;;;;;;;27.52;14.73;;;;;;;9.04;68.87;99724.47;10400772;28;20052;-60
2023/11/12 20:27:27;;;;;;;29.48;14.45;;;;;;;9.08;68.95;99693.63;10376726;28;20495;-60
2023/11/12 20:32:28;;;;;;;29.48;14.75;;;;;;;9.11;68.72;99704.00;10381306;28;20492;-59
2023/11/12 20:37:30;;;;;;;20.42;11.30;;;;;;;9.12;68.95;99711.00;10382984;28;20042;-59
2023/11/12 20:42:31;;;;;;;20.00;8.48;;;;;;;9.15;68.72;99737.47;10341284;28;20683;-60
2023/11/12 20:47:33;;;;;;;17.15;8.80;;;;;;;9.12;69.04;99733.31;10356177;28;20421;-60
2023/11/12 20:52:35;;;;;;;17.42;8.48;;;;;;;9.24;69.02;99755.16;10382099;28;20065;-59
2023/11/12 20:57:36;;;;;;;17.02;9.07;;;;;;;9.28;68.82;99769.84;10373327;28;20057;-59
2023/11/12 21:02:38;;;;;;;22.58;10.27;;;;;;;9.31;68.77;99780.19;10376460;28;20072;-59
2023/11/12 21:07:39;;;;;;;20.73;9.48;;;;;;;9.37;68.57;99767.91;10362751;28;20060;-60
2023/11/12 21:12:41;;;;;;;19.65;10.35;;;;;;;9.41;68.66;99763.03;10369077;28;20041;-60
2023/11/12 21:17:46;;;;;;;22.60;11.68;;;;;;;9.43;68.89;99761.00;10360076;28;20659;-60
2023/11/12 21:22:47;;;;;;;24.17;12.00;;;;;;;9.45;68.74;99753.59;10386322;28;20385;-60
2023/11/12 21:27:49;;;;;;;21.63;11.32;;;;;;;9.52;68.60;99749.16;10390703;28;20049;-60
2023/11/12 21:32:56;;;;;;;23.75;11.05;;;;;;;9.56;68.89;99744.25;10370521;28;20061;-61
2023/11/12 21:37:58;;;;;;;20.75;10.18;;;;;;;9.57;68.57;99757.47;10362836;28;20369;-60
2023/11/12 21:43:00;;;;;;;20.08;11.15;;;;;;;9.60;68.75;99772.41;10365284;28;20065;-61
2023/11/12 21:48:03;;;;;;;20.05;10.43;;;;;;;9.62;68.50;99759.63;10366934;28;20044;-60
2023/11/12 21:53:04;;;;;;;21.23;10.10;;;;;;;9.62;68.67;99748.91;10350963;28;20147;-60
2023/11/12 21:58:07;;;;;;;14.55;7.57;;;;;;;9.64;68.70;99755.75;10346596;28;20050;-60
2023/11/12 22:03:08;;;;;;;10.85;6.28;;;;;;;9.63;68.88;99761.28;10364992;28;20042;-60
2023/11/12 22:08:13;;;;;;;11.20;5.68;;;;;;;9.59;69.52;99762.66;10362874;28;20061;-59
2023/11/12 22:13:15;;;;;;;9.38;5.60;;;;;;;9.48;69.86;99747.88;10357295;28;20042;-59
2023/11/12 22:18:23;;;;;;;9.52;5.03;;;;;;;9.58;69.58;99753.78;10378362;28;20054;-59
2023/11/12 22:23:24;;;;;;;15.40;4.93;;;;;;;9.63;69.68;99755.91;10376285;28;20046;-59
2023/11/12 22:28:26;;;;;;;9.27;4.90;;;;;;;9.64;69.68;99747.69;10361902;28;20060;-59
2023/11/12 22:33:27;;;;;;;11.35;5.15;;;;;;;9.65;69.72;99733.25;10358584;28;20048;-59
2023/11/12 22:38:28;;;;;;;8.52;4.50;;;;;;;9.72;69.43;99742.22;10360550;28;20046;-58
2023/11/12 22:43:31;;;;;;;10.43;4.20;;;;;;;9.62;69.85;99759.63;10363284;28;20053;-58
2023/11/12 22:48:32;;;;;;;10.18;4.85;;;;;;;9.60;70.01;99759.81;10360123;28;20046;-58
2023/11/12 22:53:35;;;;;;;9.00;4.25;;;;;;;9.63;69.83;99774.69;10364736;28;20060;-58
2023/11/12 22:58:37;;;;;;;8.63;4.07;;;;;;;9.56;70.14;99795.22;10355647;28;20515;-58
2023/11/12 23:03:39;;;;;;;8.02;3.83;;;;;;;9.60;69.90;99812.66;10354548;28;20034;-58
2023/11/12 23:08:41;;;;;;;7.95;3.92;;;;;;;9.65;70.11;99812.91;10362455;28;20046;-58
2023/11/12 23:13:42;;;;;;;10.77;4.97;;;;;;;9.66;69.70;99819.97;10360930;28;20367;-59
2023/11/12 23:18:44;;;;;;;10.90;4.47;;;;;;;9.64;69.79;99796.00;10358714;28;20041;-58
2023/11/12 23:23:45;;;;;;;10.43;4.28;;;;;;;9.68;69.82;99799.97;10357988;28;20471;-59
2023/11/12 23:28:47;;;;;;;8.07;4.22;;;;;;;9.71;69.79;99822.91;10352905;28;21411;-59